sensor_id;sensor_type;location;lat;lon;timestamp;P1;durP1;ratioP1;P2;durP2;ratioP2
828;SDS011;396;52.558;13.188;2023-02-25T00:00:26;12.03;;;2.00;;
828;SDS011;396;52.558;13.188;2023-02-25T00:02:54;6.33;;;1.27;;
828;SDS011;396;52.558;13.188;2023-02-25T00:05:22;10.83;;;1.33;;
828;SDS011;396;52.558;13.188;2023-02-25T00:07:49;8.47;;;1.47;;
828;SDS011;396;52.558;13.188;2023-02-25T00:10:17;7.90;;;1.17;;
828;SDS011;396;52.558;13.188;2023-02-25T00:12:44;14.80;;;1.40;;
828;SDS011;396;52.558;13.188;2023-02-25T00:15:10;6.67;;;0.60;;
828;SDS011;396;52.558;13.188;2023-02-25T00:17:37;6.10;;;0.80;;
828;SDS011;396;52.558;13.188;2023-02-25T00:20:05;5.10;;;0.90;;
828;SDS011;396;52.558;13.188;2023-02-25T00:22:33;6.20;;;0.93;;
828;SDS011;396;52.558;13.188;2023-02-25T00:25:00;7.70;;;0.70;;
828;SDS011;396;52.558;13.188;2023-02-25T00:27:28;5.07;;;0.80;;
828;SDS011;396;52.558;13.188;2023-02-25T00:29:55;5.27;;;0.80;;
828;SDS011;396;52.558;13.188;2023-02-25T00:32:22;15.93;;;1.60;;
828;SDS011;396;52.558;13.188;2023-02-25T00:34:50;10.23;;;1.10;;
828;SDS011;396;52.558;13.188;2023-02-25T00:37:16;6.30;;;1.07;;
828;SDS011;396;52.558;13.188;2023-02-25T00:39:43;4.60;;;0.80;;
828;SDS011;396;52.558;13.188;2023-02-25T00:42:10;5.03;;;0.73;;
828;SDS011;396;52.558;13.188;2023-02-25T00:44:41;4.90;;;0.80;;
828;SDS011;396;52.558;13.188;2023-02-25T00:47:08;4.30;;;0.60;;
828;SDS011;396;52.558;13.188;2023-02-25T00:49:35;7.57;;;1.00;;
828;SDS011;396;52.558;13.188;2023-02-25T00:52:03;4.73;;;0.90;;
828;SDS011;396;52.558;13.188;2023-02-25T00:54:30;6.93;;;0.90;;
828;SDS011;396;52.558;13.188;2023-02-25T00:56:56;8.53;;;1.60;;
828;SDS011;396;52.558;13.188;2023-02-25T00:59:23;18.20;;;0.93;;
828;SDS011;396;52.558;13.188;2023-02-25T01:01:51;5.03;;;0.90;;
828;SDS011;396;52.558;13.188;2023-02-25T01:04:17;7.33;;;1.23;;
828;SDS011;396;52.558;13.188;2023-02-25T01:06:44;4.93;;;0.80;;
828;SDS011;396;52.558;13.188;2023-02-25T01:09:10;5.03;;;1.13;;
828;SDS011;396;52.558;13.188;2023-02-25T01:11:39;4.70;;;0.80;;
828;SDS011;396;52.558;13.188;2023-02-25T01:14:08;10.70;;;1.40;;
828;SDS011;396;52.558;13.188;2023-02-25T01:16:37;5.83;;;1.10;;
828;SDS011;396;52.558;13.188;2023-02-25T01:19:06;6.73;;;1.50;;
828;SDS011;396;52.558;13.188;2023-02-25T01:21:35;6.60;;;1.63;;
828;SDS011;396;52.558;13.188;2023-02-25T01:24:05;5.47;;;1.13;;
828;SDS011;396;52.558;13.188;2023-02-25T01:26:35;5.63;;;1.30;;
828;SDS011;396;52.558;13.188;2023-02-25T01:29:05;8.60;;;1.70;;
828;SDS011;396;52.558;13.188;2023-02-25T01:31:31;9.70;;;1.93;;
828;SDS011;396;52.558;13.188;2023-02-25T01:33:58;7.30;;;1.23;;
828;SDS011;396;52.558;13.188;2023-02-25T01:36:29;9.80;;;1.27;;
828;SDS011;396;52.558;13.188;2023-02-25T01:38:58;15.33;;;1.90;;
828;SDS011;396;52.558;13.188;2023-02-25T01:41:25;6.30;;;1.10;;
828;SDS011;396;52.558;13.188;2023-02-25T01:44:01;8.43;;;1.50;;
828;SDS011;396;52.558;13.188;2023-02-25T01:46:33;9.47;;;2.03;;
828;SDS011;396;52.558;13.188;2023-02-25T01:49:00;7.50;;;2.47;;
828;SDS011;396;52.558;13.188;2023-02-25T01:51:27;7.07;;;2.17;;
828;SDS011;396;52.558;13.188;2023-02-25T01:53:56;8.40;;;1.80;;
828;SDS011;396;52.558;13.188;2023-02-25T01:56:26;12.77;;;1.93;;
828;SDS011;396;52.558;13.188;2023-02-25T01:58:54;7.40;;;1.90;;
828;SDS011;396;52.558;13.188;2023-02-25T02:01:22;6.30;;;1.77;;
828;SDS011;396;52.558;13.188;2023-02-25T02:03:52;5.33;;;1.37;;
828;SDS011;396;52.558;13.188;2023-02-25T02:06:21;6.60;;;1.87;;
828;SDS011;396;52.558;13.188;2023-02-25T02:08:53;8.93;;;1.90;;
828;SDS011;396;52.558;13.188;2023-02-25T02:11:20;5.30;;;1.20;;
828;SDS011;396;52.558;13.188;2023-02-25T02:13:48;11.70;;;1.47;;
828;SDS011;396;52.558;13.188;2023-02-25T02:16:21;6.80;;;1.33;;
828;SDS011;396;52.558;13.188;2023-02-25T02:19:00;6.67;;;1.83;;
828;SDS011;396;52.558;13.188;2023-02-25T02:21:42;7.23;;;1.43;;
828;SDS011;396;52.558;13.188;2023-02-25T02:24:21;5.30;;;1.27;;
828;SDS011;396;52.558;13.188;2023-02-25T02:27:05;6.00;;;1.47;;
828;SDS011;396;52.558;13.188;2023-02-25T02:32:43;4.87;;;1.03;;
828;SDS011;396;52.558;13.188;2023-02-25T02:35:16;5.60;;;1.17;;
828;SDS011;396;52.558;13.188;2023-02-25T02:37:48;8.30;;;1.43;;
828;SDS011;396;52.558;13.188;2023-02-25T02:40:26;4.87;;;1.10;;
828;SDS011;396;52.558;13.188;2023-02-25T02:43:04;5.07;;;1.13;;
828;SDS011;396;52.558;13.188;2023-02-25T02:45:38;5.50;;;1.37;;
828;SDS011;396;52.558;13.188;2023-02-25T02:48:13;5.13;;;1.37;;
828;SDS011;396;52.558;13.188;2023-02-25T02:50:45;5.10;;;1.20;;
828;SDS011;396;52.558;13.188;2023-02-25T02:53:16;4.80;;;1.17;;
828;SDS011;396;52.558;13.188;2023-02-25T02:55:49;6.17;;;1.60;;
828;SDS011;396;52.558;13.188;2023-02-25T02:58:20;5.63;;;1.20;;
828;SDS011;396;52.558;13.188;2023-02-25T03:00:52;5.63;;;1.63;;
828;SDS011;396;52.558;13.188;2023-02-25T03:03:25;5.87;;;1.60;;
828;SDS011;396;52.558;13.188;2023-02-25T03:06:00;5.77;;;1.40;;
828;SDS011;396;52.558;13.188;2023-02-25T03:08:30;5.07;;;1.20;;
828;SDS011;396;52.558;13.188;2023-02-25T03:10:59;5.67;;;1.30;;
828;SDS011;396;52.558;13.188;2023-02-25T03:13:25;5.30;;;1.20;;
828;SDS011;396;52.558;13.188;2023-02-25T03:15:52;5.57;;;1.30;;
828;SDS011;396;52.558;13.188;2023-02-25T03:18:21;4.80;;;1.00;;
828;SDS011;396;52.558;13.188;2023-02-25T03:20:52;5.73;;;1.53;;
828;SDS011;396;52.558;13.188;2023-02-25T03:23:22;5.10;;;1.10;;
828;SDS011;396;52.558;13.188;2023-02-25T03:25:54;4.77;;;1.07;;
828;SDS011;396;52.558;13.188;2023-02-25T03:28:31;6.70;;;1.33;;
828;SDS011;396;52.558;13.188;2023-02-25T03:31:00;4.83;;;1.13;;
828;SDS011;396;52.558;13.188;2023-02-25T03:33:32;4.73;;;1.00;;
828;SDS011;396;52.558;13.188;2023-02-25T03:36:05;5.87;;;1.37;;
828;SDS011;396;52.558;13.188;2023-02-25T03:38:35;5.10;;;1.00;;
828;SDS011;396;52.558;13.188;2023-02-25T03:41:04;5.07;;;0.97;;
828;SDS011;396;52.558;13.188;2023-02-25T03:43:32;5.90;;;0.97;;
828;SDS011;396;52.558;13.188;2023-02-25T03:46:03;6.03;;;1.50;;
828;SDS011;396;52.558;13.188;2023-02-25T03:48:31;4.90;;;1.00;;
828;SDS011;396;52.558;13.188;2023-02-25T03:51:00;5.87;;;1.00;;
828;SDS011;396;52.558;13.188;2023-02-25T03:53:30;7.43;;;1.20;;
828;SDS011;396;52.558;13.188;2023-02-25T03:55:57;4.70;;;0.87;;
828;SDS011;396;52.558;13.188;2023-02-25T03:58:29;4.53;;;0.83;;
828;SDS011;396;52.558;13.188;2023-02-25T04:00:56;5.40;;;1.10;;
828;SDS011;396;52.558;13.188;2023-02-25T04:03:26;4.87;;;0.80;;
828;SDS011;396;52.558;13.188;2023-02-25T04:05:53;4.93;;;0.83;;
828;SDS011;396;52.558;13.188;2023-02-25T04:08:19;5.37;;;1.43;;
828;SDS011;396;52.558;13.188;2023-02-25T04:10:47;4.60;;;0.80;;
828;SDS011;396;52.558;13.188;2023-02-25T04:13:15;7.17;;;0.90;;
828;SDS011;396;52.558;13.188;2023-02-25T04:15:45;4.80;;;0.97;;
828;SDS011;396;52.558;13.188;2023-02-25T04:18:12;6.10;;;0.80;;
828;SDS011;396;52.558;13.188;2023-02-25T04:20:39;5.43;;;0.80;;
828;SDS011;396;52.558;13.188;2023-02-25T04:23:06;5.40;;;1.00;;
828;SDS011;396;52.558;13.188;2023-02-25T04:25:33;4.70;;;0.90;;
828;SDS011;396;52.558;13.188;2023-02-25T04:28:02;5.40;;;1.03;;
828;SDS011;396;52.558;13.188;2023-02-25T04:30:29;4.50;;;0.90;;
828;SDS011;396;52.558;13.188;2023-02-25T04:32:56;4.50;;;0.67;;
828;SDS011;396;52.558;13.188;2023-02-25T04:35:22;4.90;;;0.73;;
828;SDS011;396;52.558;13.188;2023-02-25T04:37:49;4.73;;;1.03;;
828;SDS011;396;52.558;13.188;2023-02-25T04:40:17;4.33;;;0.67;;
828;SDS011;396;52.558;13.188;2023-02-25T04:42:44;5.03;;;1.00;;
828;SDS011;396;52.558;13.188;2023-02-25T04:45:13;4.60;;;0.97;;
828;SDS011;396;52.558;13.188;2023-02-25T04:47:41;4.30;;;0.70;;
828;SDS011;396;52.558;13.188;2023-02-25T04:50:08;4.90;;;0.80;;
828;SDS011;396;52.558;13.188;2023-02-25T04:52:36;4.50;;;0.83;;
828;SDS011;396;52.558;13.188;2023-02-25T04:55:03;6.00;;;1.10;;
828;SDS011;396;52.558;13.188;2023-02-25T04:57:30;4.60;;;0.90;;
828;SDS011;396;52.558;13.188;2023-02-25T04:59:57;9.53;;;1.27;;
828;SDS011;396;52.558;13.188;2023-02-25T05:02:25;5.17;;;0.80;;
828;SDS011;396;52.558;13.188;2023-02-25T05:04:52;5.43;;;0.90;;
828;SDS011;396;52.558;13.188;2023-02-25T05:07:18;4.40;;;0.80;;
828;SDS011;396;52.558;13.188;2023-02-25T05:09:45;5.10;;;0.90;;
828;SDS011;396;52.558;13.188;2023-02-25T05:12:12;5.33;;;0.97;;
828;SDS011;396;52.558;13.188;2023-02-25T05:14:38;5.90;;;1.17;;
828;SDS011;396;52.558;13.188;2023-02-25T05:17:05;5.43;;;1.20;;
828;SDS011;396;52.558;13.188;2023-02-25T05:19:33;5.63;;;1.23;;
828;SDS011;396;52.558;13.188;2023-02-25T05:21:59;4.67;;;0.60;;
828;SDS011;396;52.558;13.188;2023-02-25T05:24:26;4.80;;;1.07;;
828;SDS011;396;52.558;13.188;2023-02-25T05:26:52;4.60;;;0.90;;
828;SDS011;396;52.558;13.188;2023-02-25T05:29:19;4.97;;;1.20;;
828;SDS011;396;52.558;13.188;2023-02-25T05:31:46;6.33;;;1.23;;
828;SDS011;396;52.558;13.188;2023-02-25T05:34:13;8.20;;;1.10;;
828;SDS011;396;52.558;13.188;2023-02-25T05:36:42;5.20;;;1.13;;
828;SDS011;396;52.558;13.188;2023-02-25T05:39:10;5.50;;;1.13;;
828;SDS011;396;52.558;13.188;2023-02-25T05:41:38;5.60;;;1.13;;
828;SDS011;396;52.558;13.188;2023-02-25T05:44:04;6.40;;;1.13;;
828;SDS011;396;52.558;13.188;2023-02-25T05:46:31;5.10;;;1.00;;
828;SDS011;396;52.558;13.188;2023-02-25T05:48:58;6.20;;;1.23;;
828;SDS011;396;52.558;13.188;2023-02-25T05:51:25;8.70;;;1.60;;
828;SDS011;396;52.558;13.188;2023-02-25T05:53:53;5.00;;;1.20;;
828;SDS011;396;52.558;13.188;2023-02-25T05:56:22;5.20;;;1.23;;
828;SDS011;396;52.558;13.188;2023-02-25T05:58:49;4.60;;;0.80;;
828;SDS011;396;52.558;13.188;2023-02-25T06:01:17;4.80;;;0.73;;
828;SDS011;396;52.558;13.188;2023-02-25T06:03:47;5.03;;;1.03;;
828;SDS011;396;52.558;13.188;2023-02-25T06:06:14;5.57;;;1.23;;
828;SDS011;396;52.558;13.188;2023-02-25T06:08:47;4.80;;;0.80;;
828;SDS011;396;52.558;13.188;2023-02-25T06:11:18;4.60;;;0.80;;
828;SDS011;396;52.558;13.188;2023-02-25T06:13:46;5.43;;;0.90;;
828;SDS011;396;52.558;13.188;2023-02-25T06:16:13;4.60;;;0.70;;
828;SDS011;396;52.558;13.188;2023-02-25T06:18:41;5.47;;;1.00;;
828;SDS011;396;52.558;13.188;2023-02-25T06:21:08;6.60;;;1.17;;
828;SDS011;396;52.558;13.188;2023-02-25T06:23:37;4.47;;;0.80;;
828;SDS011;396;52.558;13.188;2023-02-25T06:26:05;4.50;;;0.90;;
828;SDS011;396;52.558;13.188;2023-02-25T06:28:34;5.00;;;1.10;;
828;SDS011;396;52.558;13.188;2023-02-25T06:31:01;5.30;;;1.07;;
828;SDS011;396;52.558;13.188;2023-02-25T06:33:28;4.80;;;1.03;;
828;SDS011;396;52.558;13.188;2023-02-25T06:35:56;4.97;;;0.90;;
828;SDS011;396;52.558;13.188;2023-02-25T06:38:22;5.70;;;0.93;;
828;SDS011;396;52.558;13.188;2023-02-25T06:40:49;5.70;;;0.97;;
828;SDS011;396;52.558;13.188;2023-02-25T06:43:16;4.73;;;0.80;;
828;SDS011;396;52.558;13.188;2023-02-25T06:45:44;8.80;;;1.40;;
828;SDS011;396;52.558;13.188;2023-02-25T06:48:10;4.63;;;0.87;;
828;SDS011;396;52.558;13.188;2023-02-25T06:50:37;5.17;;;1.10;;
828;SDS011;396;52.558;13.188;2023-02-25T06:53:05;5.10;;;1.10;;
828;SDS011;396;52.558;13.188;2023-02-25T06:55:31;5.07;;;0.90;;
828;SDS011;396;52.558;13.188;2023-02-25T06:57:58;5.00;;;0.97;;
828;SDS011;396;52.558;13.188;2023-02-25T07:00:25;6.50;;;1.47;;
828;SDS011;396;52.558;13.188;2023-02-25T07:02:53;6.60;;;1.30;;
828;SDS011;396;52.558;13.188;2023-02-25T07:05:19;7.53;;;1.00;;
828;SDS011;396;52.558;13.188;2023-02-25T07:07:46;8.00;;;1.30;;
828;SDS011;396;52.558;13.188;2023-02-25T07:10:12;5.00;;;0.90;;
828;SDS011;396;52.558;13.188;2023-02-25T07:12:39;7.23;;;0.90;;
828;SDS011;396;52.558;13.188;2023-02-25T07:15:06;6.20;;;1.10;;
828;SDS011;396;52.558;13.188;2023-02-25T07:17:34;4.70;;;0.80;;
828;SDS011;396;52.558;13.188;2023-02-25T07:20:03;5.70;;;1.17;;
828;SDS011;396;52.558;13.188;2023-02-25T07:22:30;5.10;;;1.20;;
828;SDS011;396;52.558;13.188;2023-02-25T07:24:56;5.00;;;0.87;;
828;SDS011;396;52.558;13.188;2023-02-25T07:27:23;5.40;;;1.03;;
828;SDS011;396;52.558;13.188;2023-02-25T07:29:50;4.47;;;0.90;;
828;SDS011;396;52.558;13.188;2023-02-25T07:32:16;4.63;;;0.87;;
828;SDS011;396;52.558;13.188;2023-02-25T07:34:43;4.70;;;0.90;;
828;SDS011;396;52.558;13.188;2023-02-25T07:37:11;4.80;;;0.97;;
828;SDS011;396;52.558;13.188;2023-02-25T07:39:37;4.90;;;0.90;;
828;SDS011;396;52.558;13.188;2023-02-25T07:42:04;5.10;;;0.90;;
828;SDS011;396;52.558;13.188;2023-02-25T07:44:31;5.07;;;1.03;;
828;SDS011;396;52.558;13.188;2023-02-25T07:46:59;5.17;;;0.70;;
828;SDS011;396;52.558;13.188;2023-02-25T07:49:26;4.80;;;1.07;;
828;SDS011;396;52.558;13.188;2023-02-25T07:51:53;6.13;;;0.87;;
828;SDS011;396;52.558;13.188;2023-02-25T07:54:20;4.63;;;0.80;;
828;SDS011;396;52.558;13.188;2023-02-25T07:56:47;5.70;;;0.90;;
828;SDS011;396;52.558;13.188;2023-02-25T07:59:15;5.10;;;0.80;;
828;SDS011;396;52.558;13.188;2023-02-25T08:01:42;4.50;;;0.80;;
828;SDS011;396;52.558;13.188;2023-02-25T08:04:09;4.83;;;0.90;;
828;SDS011;396;52.558;13.188;2023-02-25T08:06:37;4.50;;;0.80;;
828;SDS011;396;52.558;13.188;2023-02-25T08:09:05;4.90;;;1.13;;
828;SDS011;396;52.558;13.188;2023-02-25T08:11:34;4.77;;;0.77;;
828;SDS011;396;52.558;13.188;2023-02-25T08:14:01;4.33;;;0.60;;
828;SDS011;396;52.558;13.188;2023-02-25T08:16:28;4.93;;;0.83;;
828;SDS011;396;52.558;13.188;2023-02-25T08:18:56;5.43;;;1.10;;
828;SDS011;396;52.558;13.188;2023-02-25T08:21:23;4.50;;;0.70;;
828;SDS011;396;52.558;13.188;2023-02-25T08:23:50;4.90;;;0.70;;
828;SDS011;396;52.558;13.188;2023-02-25T08:26:17;4.40;;;0.70;;
828;SDS011;396;52.558;13.188;2023-02-25T08:28:46;4.27;;;0.60;;
828;SDS011;396;52.558;13.188;2023-02-25T08:31:12;4.30;;;0.63;;
828;SDS011;396;52.558;13.188;2023-02-25T08:33:40;5.03;;;0.70;;
828;SDS011;396;52.558;13.188;2023-02-25T08:36:08;4.30;;;0.67;;
828;SDS011;396;52.558;13.188;2023-02-25T08:38:40;4.20;;;0.50;;
828;SDS011;396;52.558;13.188;2023-02-25T08:41:07;4.90;;;0.80;;
828;SDS011;396;52.558;13.188;2023-02-25T08:43:35;4.60;;;0.70;;
828;SDS011;396;52.558;13.188;2023-02-25T08:46:03;5.33;;;0.93;;
828;SDS011;396;52.558;13.188;2023-02-25T08:48:30;4.50;;;0.60;;
828;SDS011;396;52.558;13.188;2023-02-25T08:51:00;4.77;;;0.77;;
828;SDS011;396;52.558;13.188;2023-02-25T08:53:27;7.17;;;0.90;;
828;SDS011;396;52.558;13.188;2023-02-25T08:55:54;4.60;;;0.77;;
828;SDS011;396;52.558;13.188;2023-02-25T08:58:21;4.73;;;0.57;;
828;SDS011;396;52.558;13.188;2023-02-25T09:00:47;4.30;;;0.53;;
828;SDS011;396;52.558;13.188;2023-02-25T09:03:17;4.47;;;0.60;;
828;SDS011;396;52.558;13.188;2023-02-25T09:05:49;4.60;;;0.80;;
828;SDS011;396;52.558;13.188;2023-02-25T09:08:17;4.47;;;0.60;;
828;SDS011;396;52.558;13.188;2023-02-25T09:10:43;4.23;;;0.53;;
828;SDS011;396;52.558;13.188;2023-02-25T09:13:10;4.30;;;0.60;;
828;SDS011;396;52.558;13.188;2023-02-25T09:15:36;4.50;;;0.60;;
828;SDS011;396;52.558;13.188;2023-02-25T09:18:03;7.67;;;0.67;;
828;SDS011;396;52.558;13.188;2023-02-25T09:20:31;4.50;;;0.80;;
828;SDS011;396;52.558;13.188;2023-02-25T09:22:58;4.43;;;0.50;;
828;SDS011;396;52.558;13.188;2023-02-25T09:25:25;7.07;;;0.53;;
828;SDS011;396;52.558;13.188;2023-02-25T09:27:53;4.37;;;0.70;;
828;SDS011;396;52.558;13.188;2023-02-25T09:30:20;4.20;;;0.40;;
828;SDS011;396;52.558;13.188;2023-02-25T09:32:46;4.80;;;0.83;;
828;SDS011;396;52.558;13.188;2023-02-25T09:35:13;4.87;;;0.90;;
828;SDS011;396;52.558;13.188;2023-02-25T09:37:41;4.47;;;0.60;;
828;SDS011;396;52.558;13.188;2023-02-25T09:40:09;5.07;;;1.00;;
828;SDS011;396;52.558;13.188;2023-02-25T09:42:48;4.53;;;0.50;;
828;SDS011;396;52.558;13.188;2023-02-25T09:45:22;4.40;;;0.60;;
828;SDS011;396;52.558;13.188;2023-02-25T09:47:51;4.37;;;0.60;;
828;SDS011;396;52.558;13.188;2023-02-25T09:50:24;4.40;;;0.50;;
828;SDS011;396;52.558;13.188;2023-02-25T09:52:58;4.40;;;0.50;;
828;SDS011;396;52.558;13.188;2023-02-25T09:55:30;4.50;;;0.50;;
828;SDS011;396;52.558;13.188;2023-02-25T09:58:00;6.17;;;0.87;;
828;SDS011;396;52.558;13.188;2023-02-25T10:00:34;4.47;;;0.53;;
828;SDS011;396;52.558;13.188;2023-02-25T10:03:09;4.20;;;0.50;;
828;SDS011;396;52.558;13.188;2023-02-25T10:05:47;4.30;;;0.50;;
828;SDS011;396;52.558;13.188;2023-02-25T10:08:22;4.70;;;0.53;;
828;SDS011;396;52.558;13.188;2023-02-25T10:10:56;4.60;;;0.70;;
828;SDS011;396;52.558;13.188;2023-02-25T10:13:30;4.80;;;0.70;;
828;SDS011;396;52.558;13.188;2023-02-25T10:16:19;4.50;;;0.70;;
828;SDS011;396;52.558;13.188;2023-02-25T10:18:57;4.17;;;0.43;;
828;SDS011;396;52.558;13.188;2023-02-25T10:21:36;4.70;;;0.60;;
828;SDS011;396;52.558;13.188;2023-02-25T10:24:18;4.20;;;0.40;;
828;SDS011;396;52.558;13.188;2023-02-25T10:26:53;4.70;;;0.70;;
828;SDS011;396;52.558;13.188;2023-02-25T10:29:25;4.33;;;0.70;;
828;SDS011;396;52.558;13.188;2023-02-25T10:31:56;4.20;;;0.50;;
828;SDS011;396;52.558;13.188;2023-02-25T10:34:26;5.33;;;0.87;;
828;SDS011;396;52.558;13.188;2023-02-25T10:36:55;4.27;;;0.53;;
828;SDS011;396;52.558;13.188;2023-02-25T10:39:24;4.27;;;0.50;;
828;SDS011;396;52.558;13.188;2023-02-25T10:41:52;5.63;;;0.63;;
828;SDS011;396;52.558;13.188;2023-02-25T10:44:20;4.00;;;0.40;;
828;SDS011;396;52.558;13.188;2023-02-25T10:46:49;4.30;;;0.50;;
828;SDS011;396;52.558;13.188;2023-02-25T10:49:20;4.50;;;0.60;;
828;SDS011;396;52.558;13.188;2023-02-25T10:51:55;5.47;;;0.60;;
828;SDS011;396;52.558;13.188;2023-02-25T10:54:24;5.30;;;0.60;;
828;SDS011;396;52.558;13.188;2023-02-25T10:56:51;4.30;;;0.50;;
828;SDS011;396;52.558;13.188;2023-02-25T10:59:26;4.80;;;0.70;;
828;SDS011;396;52.558;13.188;2023-02-25T11:01:55;4.17;;;0.50;;
828;SDS011;396;52.558;13.188;2023-02-25T11:04:27;4.07;;;0.40;;
828;SDS011;396;52.558;13.188;2023-02-25T11:06:57;4.17;;;0.40;;
828;SDS011;396;52.558;13.188;2023-02-25T11:09:29;4.30;;;0.47;;
828;SDS011;396;52.558;13.188;2023-02-25T11:12:08;4.37;;;0.53;;
828;SDS011;396;52.558;13.188;2023-02-25T11:14:36;4.33;;;0.50;;
828;SDS011;396;52.558;13.188;2023-02-25T11:17:04;4.20;;;0.50;;
828;SDS011;396;52.558;13.188;2023-02-25T11:19:37;4.80;;;0.60;;
828;SDS011;396;52.558;13.188;2023-02-25T11:22:07;4.50;;;0.50;;
828;SDS011;396;52.558;13.188;2023-02-25T11:24:37;4.00;;;0.40;;
828;SDS011;396;52.558;13.188;2023-02-25T11:27:05;4.17;;;0.40;;
828;SDS011;396;52.558;13.188;2023-02-25T11:29:48;4.87;;;0.50;;
828;SDS011;396;52.558;13.188;2023-02-25T11:32:16;4.10;;;0.30;;
828;SDS011;396;52.558;13.188;2023-02-25T11:34:46;4.10;;;0.40;;
828;SDS011;396;52.558;13.188;2023-02-25T11:37:22;4.27;;;0.57;;
828;SDS011;396;52.558;13.188;2023-02-25T11:39:52;4.20;;;0.50;;
828;SDS011;396;52.558;13.188;2023-02-25T11:42:20;5.13;;;0.60;;
828;SDS011;396;52.558;13.188;2023-02-25T11:44:49;4.80;;;0.60;;
828;SDS011;396;52.558;13.188;2023-02-25T11:47:25;4.10;;;0.50;;
828;SDS011;396;52.558;13.188;2023-02-25T11:52:43;4.20;;;0.50;;
828;SDS011;396;52.558;13.188;2023-02-25T11:55:20;4.20;;;0.60;;
828;SDS011;396;52.558;13.188;2023-02-25T11:58:00;4.63;;;0.53;;
828;SDS011;396;52.558;13.188;2023-02-25T12:00:37;5.60;;;0.73;;
828;SDS011;396;52.558;13.188;2023-02-25T12:03:13;4.90;;;0.50;;
828;SDS011;396;52.558;13.188;2023-02-25T12:05:58;4.67;;;0.73;;
828;SDS011;396;52.558;13.188;2023-02-25T12:08:40;4.40;;;0.57;;
828;SDS011;396;52.558;13.188;2023-02-25T12:14:41;4.43;;;0.70;;
828;SDS011;396;52.558;13.188;2023-02-25T12:17:36;4.20;;;0.50;;
828;SDS011;396;52.558;13.188;2023-02-25T12:20:58;4.23;;;0.50;;
828;SDS011;396;52.558;13.188;2023-02-25T12:26:47;4.50;;;0.70;;
828;SDS011;396;52.558;13.188;2023-02-25T12:29:32;4.37;;;0.53;;
828;SDS011;396;52.558;13.188;2023-02-25T12:32:20;4.93;;;0.77;;
828;SDS011;396;52.558;13.188;2023-02-25T12:35:10;4.10;;;0.50;;
828;SDS011;396;52.558;13.188;2023-02-25T12:38:06;4.40;;;0.60;;
828;SDS011;396;52.558;13.188;2023-02-25T12:40:53;4.20;;;0.50;;
828;SDS011;396;52.558;13.188;2023-02-25T12:43:32;4.37;;;0.53;;
828;SDS011;396;52.558;13.188;2023-02-25T12:46:14;4.70;;;0.53;;
828;SDS011;396;52.558;13.188;2023-02-25T12:52:02;4.30;;;0.50;;
828;SDS011;396;52.558;13.188;2023-02-25T12:54:56;4.57;;;0.60;;
828;SDS011;396;52.558;13.188;2023-02-25T12:57:49;4.40;;;0.70;;
828;SDS011;396;52.558;13.188;2023-02-25T13:03:32;4.60;;;0.70;;
828;SDS011;396;52.558;13.188;2023-02-25T13:09:20;4.17;;;0.43;;
828;SDS011;396;52.558;13.188;2023-02-25T13:12:00;4.70;;;0.60;;
828;SDS011;396;52.558;13.188;2023-02-25T13:14:48;4.40;;;0.50;;
828;SDS011;396;52.558;13.188;2023-02-25T13:17:27;4.60;;;0.50;;
828;SDS011;396;52.558;13.188;2023-02-25T13:20:18;4.50;;;0.70;;
828;SDS011;396;52.558;13.188;2023-02-25T13:22:52;4.37;;;0.53;;
828;SDS011;396;52.558;13.188;2023-02-25T13:25:30;5.43;;;1.00;;
828;SDS011;396;52.558;13.188;2023-02-25T13:28:16;4.30;;;0.60;;
828;SDS011;396;52.558;13.188;2023-02-25T13:30:55;4.40;;;0.53;;
828;SDS011;396;52.558;13.188;2023-02-25T13:33:35;5.03;;;0.93;;
828;SDS011;396;52.558;13.188;2023-02-25T13:36:17;5.53;;;0.70;;
828;SDS011;396;52.558;13.188;2023-02-25T13:39:02;5.23;;;0.93;;
828;SDS011;396;52.558;13.188;2023-02-25T13:41:43;6.77;;;1.30;;
828;SDS011;396;52.558;13.188;2023-02-25T13:44:26;4.20;;;0.50;;
828;SDS011;396;52.558;13.188;2023-02-25T13:47:29;4.50;;;0.70;;
828;SDS011;396;52.558;13.188;2023-02-25T13:53:14;4.10;;;0.40;;
828;SDS011;396;52.558;13.188;2023-02-25T14:01:38;4.30;;;0.57;;
828;SDS011;396;52.558;13.188;2023-02-25T14:04:22;4.30;;;0.50;;
828;SDS011;396;52.558;13.188;2023-02-25T14:07:14;4.30;;;0.60;;
828;SDS011;396;52.558;13.188;2023-02-25T14:09:50;4.57;;;0.80;;
828;SDS011;396;52.558;13.188;2023-02-25T14:12:31;4.20;;;0.60;;
828;SDS011;396;52.558;13.188;2023-02-25T14:15:14;4.50;;;0.70;;
828;SDS011;396;52.558;13.188;2023-02-25T14:17:51;4.40;;;0.60;;
828;SDS011;396;52.558;13.188;2023-02-25T14:20:37;4.60;;;0.60;;
828;SDS011;396;52.558;13.188;2023-02-25T14:23:09;4.80;;;0.70;;
828;SDS011;396;52.558;13.188;2023-02-25T14:25:46;4.80;;;0.70;;
828;SDS011;396;52.558;13.188;2023-02-25T14:28:24;7.53;;;0.80;;
828;SDS011;396;52.558;13.188;2023-02-25T14:31:05;4.73;;;0.60;;
828;SDS011;396;52.558;13.188;2023-02-25T14:33:51;4.43;;;0.67;;
828;SDS011;396;52.558;13.188;2023-02-25T14:36:40;4.27;;;0.50;;
828;SDS011;396;52.558;13.188;2023-02-25T14:39:21;4.50;;;0.60;;
828;SDS011;396;52.558;13.188;2023-02-25T14:42:03;4.13;;;0.50;;
828;SDS011;396;52.558;13.188;2023-02-25T14:44:38;4.20;;;0.60;;
828;SDS011;396;52.558;13.188;2023-02-25T14:47:11;4.07;;;0.43;;
828;SDS011;396;52.558;13.188;2023-02-25T14:49:46;4.10;;;0.47;;
828;SDS011;396;52.558;13.188;2023-02-25T14:52:30;5.17;;;0.60;;
828;SDS011;396;52.558;13.188;2023-02-25T14:55:16;4.10;;;0.40;;
828;SDS011;396;52.558;13.188;2023-02-25T14:58:06;4.50;;;0.50;;
828;SDS011;396;52.558;13.188;2023-02-25T15:00:55;4.40;;;0.50;;
828;SDS011;396;52.558;13.188;2023-02-25T15:03:42;5.67;;;0.73;;
828;SDS011;396;52.558;13.188;2023-02-25T15:06:34;6.10;;;0.70;;
828;SDS011;396;52.558;13.188;2023-02-25T15:09:18;5.07;;;0.73;;
828;SDS011;396;52.558;13.188;2023-02-25T15:12:03;5.77;;;0.80;;
828;SDS011;396;52.558;13.188;2023-02-25T15:17:36;4.67;;;0.63;;
828;SDS011;396;52.558;13.188;2023-02-25T15:20:26;7.70;;;0.70;;
828;SDS011;396;52.558;13.188;2023-02-25T15:23:08;4.53;;;0.67;;
828;SDS011;396;52.558;13.188;2023-02-25T15:25:43;4.10;;;0.50;;
828;SDS011;396;52.558;13.188;2023-02-25T15:31:06;4.50;;;0.60;;
828;SDS011;396;52.558;13.188;2023-02-25T15:37:16;4.30;;;0.50;;
828;SDS011;396;52.558;13.188;2023-02-25T15:39:47;5.67;;;0.90;;
828;SDS011;396;52.558;13.188;2023-02-25T15:42:16;4.60;;;0.70;;
828;SDS011;396;52.558;13.188;2023-02-25T15:51:03;4.80;;;0.50;;
828;SDS011;396;52.558;13.188;2023-02-25T15:53:44;4.47;;;0.50;;
828;SDS011;396;52.558;13.188;2023-02-25T16:05:00;4.10;;;0.40;;
828;SDS011;396;52.558;13.188;2023-02-25T16:07:30;5.40;;;0.87;;
828;SDS011;396;52.558;13.188;2023-02-25T16:10:00;4.17;;;0.47;;
828;SDS011;396;52.558;13.188;2023-02-25T16:12:32;4.40;;;0.60;;
828;SDS011;396;52.558;13.188;2023-02-25T16:14:59;4.17;;;0.40;;
828;SDS011;396;52.558;13.188;2023-02-25T16:17:28;4.50;;;0.50;;
828;SDS011;396;52.558;13.188;2023-02-25T16:19:58;4.37;;;0.57;;
828;SDS011;396;52.558;13.188;2023-02-25T16:22:30;4.20;;;0.47;;
828;SDS011;396;52.558;13.188;2023-02-25T16:24:58;4.23;;;0.50;;
828;SDS011;396;52.558;13.188;2023-02-25T16:27:31;6.10;;;0.60;;
828;SDS011;396;52.558;13.188;2023-02-25T16:30:08;4.80;;;0.60;;
828;SDS011;396;52.558;13.188;2023-02-25T16:32:43;4.50;;;0.70;;
828;SDS011;396;52.558;13.188;2023-02-25T16:35:16;4.20;;;0.47;;
828;SDS011;396;52.558;13.188;2023-02-25T16:37:49;4.30;;;0.60;;
828;SDS011;396;52.558;13.188;2023-02-25T16:40:24;5.30;;;0.77;;
828;SDS011;396;52.558;13.188;2023-02-25T16:42:53;4.30;;;0.60;;
828;SDS011;396;52.558;13.188;2023-02-25T16:45:23;4.40;;;0.63;;
828;SDS011;396;52.558;13.188;2023-02-25T16:47:53;4.50;;;0.63;;
828;SDS011;396;52.558;13.188;2023-02-25T16:50:23;4.30;;;0.63;;
828;SDS011;396;52.558;13.188;2023-02-25T16:52:51;4.77;;;0.90;;